createdAt,value
2018-02-07T00:01:17.774Z,89.25
2018-02-07T00:03:45.201Z,89.55
2018-02-07T00:06:12.630Z,89.39
2018-02-07T00:08:40.034Z,89.44
2018-02-07T00:11:07.456Z,89.62
2018-02-07T00:13:35.927Z,89.81
2018-02-07T00:16:03.413Z,89.84
2018-02-07T00:18:30.857Z,89.85
2018-02-07T00:20:58.279Z,89.85
2018-02-07T00:23:25.810Z,90.35
2018-02-07T00:25:53.258Z,90.11
2018-02-07T00:28:20.671Z,90.19
2018-02-07T00:30:48.118Z,89.91
2018-02-07T00:33:15.554Z,89.53
2018-02-07T00:35:42.965Z,89.48
2018-02-07T00:38:10.402Z,89.64
2018-02-07T00:40:37.834Z,89.40
2018-02-07T00:43:05.266Z,89.16
2018-02-07T00:45:32.710Z,89.00
2018-02-07T00:48:00.133Z,88.90
2018-02-07T00:50:27.578Z,88.88
2018-02-07T00:52:55.095Z,88.96
2018-02-07T00:55:22.529Z,89.57
2018-02-07T00:57:49.956Z,89.64
2018-02-07T01:00:17.386Z,89.57
2018-02-07T01:02:44.805Z,89.59
2018-02-07T01:05:12.225Z,89.91
2018-02-07T01:07:39.657Z,90.01
2018-02-07T01:10:08.261Z,90.08
2018-02-07T01:12:35.732Z,90.10
2018-02-07T01:15:03.159Z,90.12
2018-02-07T01:17:30.597Z,90.47
2018-02-07T01:19:58.020Z,90.58
2018-02-07T01:22:25.464Z,90.49
2018-02-07T01:24:52.881Z,90.57
2018-02-07T01:27:20.325Z,90.60
2018-02-07T01:29:47.758Z,90.52
2018-02-07T01:32:15.177Z,91.02
2018-02-07T01:34:42.615Z,91.19
2018-02-07T01:37:10.082Z,90.95
2018-02-07T01:39:37.601Z,90.96
2018-02-07T01:42:05.009Z,90.97
2018-02-07T01:44:32.452Z,91.33
2018-02-07T01:46:59.856Z,91.01
2018-02-07T01:49:27.317Z,91.13
2018-02-07T01:51:54.732Z,91.20
2018-02-07T01:54:22.186Z,91.19
2018-02-07T01:56:49.646Z,91.43
2018-02-07T01:59:17.070Z,91.32
2018-02-07T02:01:44.493Z,91.16
2018-02-07T02:04:11.911Z,91.38
2018-02-07T02:06:40.415Z,91.36
2018-02-07T02:09:07.847Z,91.38
2018-02-07T02:11:35.274Z,91.34
2018-02-07T02:14:02.758Z,91.55
2018-02-07T02:16:30.279Z,91.53
2018-02-07T02:18:57.700Z,91.27
2018-02-07T02:21:25.219Z,91.57
2018-02-07T02:23:52.644Z,91.92
2018-02-07T02:26:20.130Z,92.05
2018-02-07T02:28:47.557Z,91.84
2018-02-07T02:31:14.982Z,91.97
2018-02-07T02:33:42.432Z,91.64
2018-02-07T02:36:21.876Z,91.75
2018-02-07T02:38:49.301Z,91.90
2018-02-07T02:41:16.727Z,91.84
2018-02-07T02:43:44.136Z,91.81
2018-02-07T02:46:12.015Z,92.00
2018-02-07T02:48:39.447Z,91.96
2018-02-07T02:51:06.886Z,91.64
2018-02-07T02:53:34.707Z,91.55
2018-02-07T02:56:02.161Z,91.45
2018-02-07T02:58:29.589Z,91.43
2018-02-07T03:00:57.013Z,91.42
2018-02-07T03:03:24.447Z,91.46
2018-02-07T03:05:51.869Z,91.40
2018-02-07T03:08:19.386Z,91.36
2018-02-07T03:10:46.816Z,91.14
2018-02-07T03:13:14.256Z,90.89
2018-02-07T03:15:41.695Z,91.11
2018-02-07T03:18:09.139Z,91.07
2018-02-07T03:20:36.573Z,91.19
2018-02-07T03:23:04.112Z,91.10
2018-02-07T03:25:31.521Z,91.43
2018-02-07T03:27:59.024Z,91.48
2018-02-07T03:30:26.456Z,91.72
2018-02-07T03:32:53.888Z,91.74
2018-02-07T03:35:21.327Z,91.69
2018-02-07T03:37:48.783Z,91.62
2018-02-07T03:40:16.197Z,91.78
2018-02-07T03:42:44.613Z,91.88
2018-02-07T03:45:12.035Z,92.09
2018-02-07T03:47:39.631Z,92.29
2018-02-07T03:50:07.084Z,92.67
2018-02-07T03:52:34.567Z,92.77
2018-02-07T03:55:02.097Z,92.88
2018-02-07T03:57:29.516Z,93.11
2018-02-07T03:59:56.953Z,93.14
2018-02-07T04:02:24.469Z,93.23
2018-02-07T04:04:51.890Z,93.30
2018-02-07T04:07:19.325Z,93.38
2018-02-07T04:09:46.742Z,93.33
2018-02-07T04:12:14.244Z,93.42
2018-02-07T04:14:41.663Z,93.57
2018-02-07T04:17:09.122Z,93.50
2018-02-07T04:19:36.578Z,93.44
2018-02-07T04:22:04.004Z,93.28
2018-02-07T04:24:31.417Z,93.28
2018-02-07T04:26:58.841Z,93.31
2018-02-07T04:29:26.244Z,93.21
2018-02-07T04:31:53.734Z,93.19
2018-02-07T04:34:21.166Z,92.98
2018-02-07T04:36:48.602Z,92.76
2018-02-07T04:39:16.118Z,92.58
2018-02-07T04:41:43.590Z,92.54
2018-02-07T04:44:11.070Z,92.44
2018-02-07T04:46:38.555Z,92.29
2018-02-07T04:49:06.003Z,92.19
2018-02-07T04:51:33.473Z,92.18
2018-02-07T04:54:00.949Z,91.94
2018-02-07T04:56:28.358Z,91.74
2018-02-07T04:58:55.812Z,91.56
2018-02-07T05:01:23.240Z,91.73
2018-02-07T05:03:50.661Z,91.76
2018-02-07T05:06:18.448Z,92.09
2018-02-07T05:08:45.869Z,91.67
2018-02-07T05:11:13.293Z,91.35
2018-02-07T05:13:40.729Z,91.33
2018-02-07T05:16:08.157Z,91.15
2018-02-07T05:18:35.616Z,91.16
2018-02-07T05:21:03.065Z,91.10
2018-02-07T05:23:30.488Z,90.96
2018-02-07T05:25:57.897Z,90.71
2018-02-07T05:28:25.341Z,90.64
2018-02-07T05:30:52.757Z,90.84
2018-02-07T05:33:20.205Z,90.89
2018-02-07T05:35:47.680Z,90.95
2018-02-07T05:38:15.161Z,91.05
2018-02-07T05:40:42.593Z,91.05
2018-02-07T05:43:10.054Z,91.22
2018-02-07T05:45:37.472Z,91.16
2018-02-07T05:48:04.898Z,91.10
2018-02-07T05:50:32.329Z,91.07
2018-02-07T05:53:00.170Z,90.71
2018-02-07T05:55:27.605Z,90.51
2018-02-07T05:57:55.042Z,90.45
2018-02-07T06:00:22.470Z,90.52
2018-02-07T06:02:49.947Z,90.55
2018-02-07T06:05:17.361Z,90.54
2018-02-07T06:07:44.777Z,90.46
2018-02-07T06:10:12.208Z,90.79
2018-02-07T06:12:39.652Z,90.85
2018-02-07T06:15:07.085Z,91.16
2018-02-07T06:17:34.526Z,91.62
2018-02-07T06:20:01.956Z,91.71
2018-02-07T06:22:29.418Z,91.68
2018-02-07T06:24:56.865Z,91.66
2018-02-07T06:27:24.307Z,91.69
2018-02-07T06:29:52.036Z,91.73
2018-02-07T06:32:19.465Z,91.76
2018-02-07T06:34:46.890Z,91.53
2018-02-07T06:37:14.330Z,91.26
2018-02-07T06:39:41.774Z,91.42
2018-02-07T06:42:09.206Z,91.68
2018-02-07T06:44:36.637Z,91.88
2018-02-07T06:47:04.061Z,92.05
2018-02-07T06:49:31.690Z,92.06
2018-02-07T06:51:59.109Z,92.13
2018-02-07T06:54:26.563Z,92.05
2018-02-07T06:56:53.982Z,92.09
2018-02-07T06:59:21.447Z,92.12
2018-02-07T07:01:48.823Z,92.37
2018-02-07T07:04:16.245Z,91.90
2018-02-07T07:06:43.678Z,90.19
2018-02-07T07:09:11.110Z,90.20
2018-02-07T07:11:38.536Z,90.54
2018-02-07T07:14:05.978Z,91.03
2018-02-07T07:16:33.405Z,91.16
2018-02-07T07:19:00.877Z,91.12
2018-02-07T07:21:28.298Z,90.98
2018-02-07T07:23:55.713Z,90.95
2018-02-07T07:26:23.414Z,90.80
2018-02-07T07:28:50.906Z,91.01
2018-02-07T07:31:18.349Z,91.12
2018-02-07T07:33:45.806Z,91.17
2018-02-07T07:36:13.317Z,91.21
2018-02-07T07:38:40.735Z,91.13
2018-02-07T07:41:08.254Z,90.96
2018-02-07T07:43:35.734Z,90.78
2018-02-07T07:46:03.152Z,90.73
2018-02-07T07:48:30.560Z,90.66
2018-02-07T07:50:58.042Z,90.71
2018-02-07T07:53:25.414Z,90.60
2018-02-07T07:55:52.840Z,90.66
2018-02-07T07:58:20.261Z,90.69
2018-02-07T08:00:47.690Z,90.33
2018-02-07T08:03:15.109Z,90.34
2018-02-07T08:05:42.589Z,90.08
2018-02-07T08:08:10.030Z,89.98
2018-02-07T08:10:37.501Z,89.95
2018-02-07T08:13:04.934Z,90.14
2018-02-07T08:15:32.379Z,90.26
2018-02-07T08:17:59.797Z,90.15
2018-02-07T08:20:27.233Z,89.98
2018-02-07T08:22:54.888Z,89.80
2018-02-07T08:25:22.304Z,90.18
2018-02-07T08:27:49.762Z,90.42
2018-02-07T08:30:17.170Z,90.35
2018-02-07T08:32:44.594Z,90.05
2018-02-07T08:35:12.043Z,89.93
2018-02-07T08:37:39.474Z,89.58
2018-02-07T08:40:06.899Z,89.31
2018-02-07T08:42:34.322Z,88.61
2018-02-07T08:45:01.814Z,88.38
2018-02-07T08:47:29.245Z,88.46
2018-02-07T08:49:56.664Z,88.12
2018-02-07T08:52:24.109Z,86.54
2018-02-07T08:54:51.524Z,86.24
2018-02-07T08:57:18.947Z,86.06
2018-02-07T08:59:46.387Z,85.27
2018-02-07T09:02:13.798Z,84.75
2018-02-07T09:04:41.210Z,84.32
2018-02-07T09:07:08.646Z,84.41
2018-02-07T09:09:36.154Z,84.61
2018-02-07T09:12:03.544Z,84.12
2018-02-07T09:14:30.985Z,82.43
2018-02-07T09:16:58.466Z,81.67
2018-02-07T09:19:26.417Z,82.94
2018-02-07T09:21:53.861Z,82.91
2018-02-07T09:24:21.274Z,83.29
2018-02-07T09:26:48.696Z,84.49
2018-02-07T09:29:16.113Z,85.82
2018-02-07T09:31:43.558Z,85.64
2018-02-07T09:34:10.974Z,86.54
2018-02-07T09:36:38.404Z,87.05
2018-02-07T09:39:05.822Z,87.00
2018-02-07T09:41:33.240Z,86.75
2018-02-07T09:44:00.665Z,86.70
2018-02-07T09:46:28.090Z,86.21
2018-02-07T09:48:55.525Z,85.43
2018-02-07T09:51:22.930Z,84.74
2018-02-07T09:53:50.366Z,84.32
2018-02-07T09:56:17.787Z,84.68
2018-02-07T09:58:45.224Z,83.57
2018-02-07T10:01:12.725Z,82.15
2018-02-07T10:03:40.149Z,82.00
2018-02-07T10:06:07.608Z,83.07
2018-02-07T10:08:35.017Z,83.43
2018-02-07T10:11:02.441Z,82.45
2018-02-07T10:13:29.889Z,82.91
2018-02-07T10:15:58.190Z,82.04
2018-02-07T10:18:25.615Z,81.31
2018-02-07T10:20:53.014Z,82.07
2018-02-07T10:23:20.440Z,82.33
2018-02-07T10:25:47.860Z,83.43
2018-02-07T10:28:15.284Z,81.26
2018-02-07T10:30:42.726Z,81.40
2018-02-07T10:33:10.139Z,79.63
2018-02-07T10:35:37.557Z,78.50
2018-02-07T10:38:04.967Z,80.00
2018-02-07T10:40:32.382Z,80.86
2018-02-07T10:42:59.814Z,79.79
2018-02-07T10:45:27.262Z,80.07
2018-02-07T10:47:54.661Z,78.82
2018-02-07T10:50:22.081Z,80.12
2018-02-07T10:52:49.489Z,79.62
2018-02-07T10:55:16.916Z,78.11
2018-02-07T10:57:44.345Z,77.53
2018-02-07T11:00:11.766Z,78.60
2018-02-07T11:02:39.187Z,77.21
2018-02-07T11:05:06.622Z,78.02
2018-02-07T11:07:34.038Z,79.16
2018-02-07T11:10:01.645Z,77.58
2018-02-07T11:12:29.989Z,77.57
2018-02-07T11:14:57.414Z,76.51
2018-02-07T11:17:24.928Z,76.54
2018-02-07T11:19:52.400Z,75.00
2018-02-07T11:22:19.790Z,75.69
2018-02-07T11:24:47.260Z,74.17
2018-02-07T11:27:14.673Z,74.64
2018-02-07T11:29:42.102Z,72.79
2018-02-07T11:32:09.507Z,74.63
2018-02-07T11:34:36.938Z,74.79
2018-02-07T11:37:04.369Z,74.07
2018-02-07T11:39:31.808Z,74.26
2018-02-07T11:41:59.220Z,75.08
2018-02-07T11:44:26.637Z,74.36
2018-02-07T11:46:54.069Z,73.71
2018-02-07T11:49:21.481Z,73.19
2018-02-07T11:51:48.902Z,73.48
2018-02-07T11:54:16.325Z,73.55
2018-02-07T11:56:43.742Z,75.00
2018-02-07T11:59:11.258Z,73.29
2018-02-07T12:01:38.760Z,73.72
2018-02-07T12:04:06.190Z,72.78
2018-02-07T12:06:33.623Z,71.95
2018-02-07T12:09:01.939Z,74.27
2018-02-07T12:11:29.376Z,74.87
2018-02-07T12:13:56.780Z,73.16
2018-02-07T12:16:24.212Z,73.63
2018-02-07T12:18:51.617Z,70.79
2018-02-07T12:21:19.037Z,70.17
2018-02-07T12:23:46.470Z,72.12
2018-02-07T12:26:13.918Z,72.39
2018-02-07T12:28:41.362Z,71.34
2018-02-07T12:31:08.789Z,72.32
2018-02-07T12:33:36.198Z,72.54
2018-02-07T12:36:03.626Z,71.95
2018-02-07T12:38:31.029Z,70.37
2018-02-07T12:40:58.477Z,71.05
2018-02-07T12:43:25.967Z,70.01
2018-02-07T12:45:53.405Z,69.95
2018-02-07T12:48:20.829Z,70.46
2018-02-07T12:50:48.233Z,70.06
2018-02-07T12:53:15.653Z,69.07
2018-02-07T12:55:43.146Z,70.52
2018-02-07T12:58:10.601Z,69.69
2018-02-07T13:00:38.045Z,70.60
2018-02-07T13:03:05.506Z,70.38
2018-02-07T13:05:33.901Z,67.39
2018-02-07T13:08:01.321Z,67.04
2018-02-07T13:10:28.737Z,68.90
2018-02-07T13:12:56.157Z,68.74
2018-02-07T13:15:23.565Z,70.53
2018-02-07T13:17:50.992Z,70.24
2018-02-07T13:20:18.393Z,68.84
2018-02-07T13:22:45.818Z,70.52
2018-02-07T13:25:13.222Z,69.85
2018-02-07T13:27:40.689Z,71.03
2018-02-07T13:30:08.109Z,69.08
2018-02-07T13:32:35.557Z,70.43
2018-02-07T13:35:02.973Z,68.52
2018-02-07T13:37:30.400Z,70.00
2018-02-07T13:39:57.815Z,70.03
2018-02-07T13:42:25.237Z,70.25
2018-02-07T13:44:52.633Z,68.29
2018-02-07T13:47:20.057Z,66.77
2018-02-07T13:49:47.497Z,68.88
2018-02-07T13:52:14.979Z,68.64
2018-02-07T13:54:42.410Z,69.71
2018-02-07T13:57:09.853Z,69.78
2018-02-07T13:59:37.298Z,69.56
2018-02-07T14:02:04.723Z,68.56
2018-02-07T14:04:32.136Z,68.86
2018-02-07T14:06:59.538Z,67.10
2018-02-07T14:09:26.962Z,66.69
2018-02-07T14:11:54.384Z,65.90
2018-02-07T14:14:21.802Z,66.15
2018-02-07T14:16:49.214Z,65.26
2018-02-07T14:19:16.636Z,67.00
2018-02-07T14:21:44.101Z,66.22
2018-02-07T14:24:11.541Z,68.46
2018-02-07T14:26:38.952Z,66.84
2018-02-07T14:29:07.199Z,64.87
2018-02-07T14:31:34.613Z,65.02
2018-02-07T14:34:02.054Z,65.42
2018-02-07T14:36:29.465Z,66.48
2018-02-07T14:38:56.885Z,65.62
2018-02-07T14:41:24.331Z,66.08
2018-02-07T14:43:51.717Z,66.67
2018-02-07T14:46:19.230Z,68.31
2018-02-07T14:48:46.757Z,66.01
2018-02-07T14:51:14.168Z,65.41
2018-02-07T14:53:41.677Z,66.73
2018-02-07T14:56:09.045Z,65.92
2018-02-07T14:58:36.468Z,66.51
2018-02-07T15:01:03.875Z,66.90
2018-02-07T15:03:31.282Z,66.46
2018-02-07T15:05:58.709Z,66.80
2018-02-07T15:08:26.124Z,66.59
2018-02-07T15:10:53.597Z,66.61
2018-02-07T15:13:21.020Z,66.30
2018-02-07T15:15:48.455Z,67.52
2018-02-07T15:18:15.882Z,67.97
2018-02-07T15:20:43.351Z,68.24
2018-02-07T15:23:10.725Z,69.15
2018-02-07T15:25:38.147Z,69.72
2018-02-07T15:28:05.584Z,70.60
2018-02-07T15:30:32.986Z,71.00
2018-02-07T15:33:00.437Z,70.21
2018-02-07T15:35:27.871Z,71.27
2018-02-07T15:37:55.268Z,68.59
2018-02-07T15:40:22.685Z,69.25
2018-02-07T15:42:50.105Z,69.83
2018-02-07T15:45:17.554Z,70.25
2018-02-07T15:47:44.984Z,69.67
2018-02-07T15:50:12.390Z,69.35
2018-02-07T15:52:40.457Z,69.09
2018-02-07T15:55:07.879Z,69.24
2018-02-07T15:57:35.283Z,69.49
2018-02-07T16:00:02.757Z,71.48
2018-02-07T16:02:30.169Z,71.57
2018-02-07T16:04:57.593Z,71.68
2018-02-07T16:07:25.043Z,71.77
2018-02-07T16:09:52.445Z,71.77
2018-02-07T16:12:19.857Z,72.09
2018-02-07T16:14:47.276Z,72.00
2018-02-07T16:17:14.705Z,72.54
2018-02-07T16:19:42.137Z,71.47
2018-02-07T16:22:09.582Z,71.73
2018-02-07T16:24:37.009Z,71.80
2018-02-07T16:27:04.436Z,71.75
2018-02-07T16:29:31.842Z,72.24
2018-02-07T16:31:59.272Z,72.69
2018-02-07T16:34:26.781Z,73.35
2018-02-07T16:36:54.205Z,73.28
2018-02-07T16:39:21.626Z,73.28
2018-02-07T16:41:49.078Z,73.04
2018-02-07T16:44:16.483Z,73.24
2018-02-07T16:46:43.931Z,73.29
2018-02-07T16:49:11.338Z,73.33
2018-02-07T16:51:38.797Z,74.10
2018-02-07T16:54:06.249Z,73.15
2018-02-07T16:56:33.705Z,73.35
2018-02-07T16:59:01.118Z,73.09
2018-02-07T17:01:28.528Z,73.43
2018-02-07T17:03:55.995Z,75.13
2018-02-07T17:06:23.415Z,73.62
2018-02-07T17:08:50.816Z,75.58
2018-02-07T17:11:18.269Z,75.31
2018-02-07T17:13:45.783Z,73.28
2018-02-07T17:16:14.047Z,73.30
2018-02-07T17:18:41.447Z,74.31
2018-02-07T17:21:08.912Z,75.70
2018-02-07T17:23:36.337Z,75.88
2018-02-07T17:26:03.761Z,73.89
2018-02-07T17:28:31.210Z,74.60
2018-02-07T17:30:58.625Z,74.66
2018-02-07T17:33:26.042Z,75.03
2018-02-07T17:35:53.450Z,74.84
2018-02-07T17:38:20.870Z,75.10
2018-02-07T17:40:48.279Z,74.84
2018-02-07T17:43:16.509Z,75.06
2018-02-07T17:45:43.920Z,77.64
2018-02-07T17:48:11.336Z,75.75
2018-02-07T17:50:38.781Z,75.93
2018-02-07T17:53:06.205Z,76.09
2018-02-07T17:55:33.632Z,76.16
2018-02-07T17:58:01.062Z,75.72
2018-02-07T18:00:28.478Z,75.57
2018-02-07T18:02:55.906Z,75.89
2018-02-07T18:05:23.312Z,76.44
2018-02-07T18:07:50.801Z,76.79
2018-02-07T18:10:18.180Z,76.67
2018-02-07T18:12:46.578Z,78.91
2018-02-07T18:15:13.991Z,75.69
2018-02-07T18:17:41.410Z,76.07
2018-02-07T18:20:08.857Z,77.31
2018-02-07T18:22:36.292Z,77.63
2018-02-07T18:25:03.709Z,76.24
2018-02-07T18:27:31.118Z,77.36
2018-02-07T18:29:58.610Z,77.77
2018-02-07T18:32:26.025Z,76.03
2018-02-07T18:34:53.450Z,77.76
2018-02-07T18:37:20.873Z,78.37
2018-02-07T18:39:48.296Z,75.64
2018-02-07T18:42:15.713Z,74.73
2018-02-07T18:44:43.131Z,74.94
2018-02-07T18:47:10.542Z,76.83
2018-02-07T18:49:37.979Z,76.41
2018-02-07T18:52:05.385Z,75.63
2018-02-07T18:54:32.809Z,75.09
2018-02-07T18:57:00.220Z,77.12
2018-02-07T18:59:27.631Z,76.59
2018-02-07T19:01:55.046Z,77.96
2018-02-07T19:04:22.457Z,77.45
2018-02-07T19:06:49.894Z,77.31
2018-02-07T19:09:17.305Z,77.51
2018-02-07T19:11:44.729Z,77.47
2018-02-07T19:14:12.153Z,79.07
2018-02-07T19:16:39.640Z,76.57
2018-02-07T19:19:07.059Z,79.33
2018-02-07T19:21:34.472Z,78.30
2018-02-07T19:24:01.882Z,75.67
2018-02-07T19:26:29.297Z,78.08
2018-02-07T19:28:56.727Z,76.47
2018-02-07T19:31:24.194Z,76.67
2018-02-07T19:33:51.618Z,78.20
2018-02-07T19:36:19.061Z,76.83
2018-02-07T19:38:46.485Z,78.18
2018-02-07T19:41:13.899Z,77.45
2018-02-07T19:43:41.318Z,77.50
2018-02-07T19:46:08.779Z,77.76
2018-02-07T19:48:36.230Z,77.69
2018-02-07T19:51:03.657Z,78.20
2018-02-07T19:53:31.078Z,79.18
2018-02-07T19:55:58.560Z,79.16
2018-02-07T19:58:25.960Z,78.03
2018-02-07T20:00:53.423Z,79.05
2018-02-07T20:03:21.798Z,78.73
2018-02-07T20:05:49.211Z,79.33
2018-02-07T20:08:16.634Z,79.44
2018-02-07T20:10:44.045Z,79.74
2018-02-07T20:13:11.502Z,79.73
2018-02-07T20:15:38.969Z,80.07
2018-02-07T20:18:06.390Z,81.19
2018-02-07T20:20:33.865Z,80.30
2018-02-07T20:23:01.279Z,79.67
2018-02-07T20:25:28.751Z,80.67
2018-02-07T20:27:56.177Z,79.27
2018-02-07T20:30:23.593Z,78.70
2018-02-07T20:32:51.009Z,78.94
2018-02-07T20:35:18.434Z,79.30
2018-02-07T20:37:47.323Z,79.04
2018-02-07T20:40:22.645Z,80.77
2018-02-07T20:42:50.879Z,80.55
2018-02-07T20:45:18.448Z,78.55
2018-02-07T20:47:45.939Z,78.85
2018-02-07T20:50:13.342Z,78.60
2018-02-07T20:52:41.725Z,79.62
2018-02-07T20:55:09.180Z,80.76
2018-02-07T20:57:39.446Z,81.35
2018-02-07T21:00:06.948Z,80.25
2018-02-07T21:02:34.382Z,79.63
2018-02-07T21:05:05.388Z,81.04
2018-02-07T21:07:32.815Z,80.06
2018-02-07T21:10:00.221Z,79.84
2018-02-07T21:12:28.482Z,78.93
2018-02-07T21:14:55.885Z,80.67
2018-02-07T21:17:23.638Z,80.72
2018-02-07T21:19:51.042Z,79.89
2018-02-07T21:22:18.534Z,79.76
2018-02-07T21:24:45.982Z,80.05
2018-02-07T21:27:13.551Z,80.42
2018-02-07T21:29:44.580Z,79.33
2018-02-07T21:32:12.813Z,80.37
2018-02-07T21:34:45.280Z,80.70
2018-02-07T21:37:14.513Z,82.09
2018-02-07T21:39:42.100Z,81.99
2018-02-07T21:42:10.390Z,79.54
2018-02-07T21:44:37.829Z,79.74
2018-02-07T21:47:05.266Z,79.91
2018-02-07T21:49:34.159Z,81.33
2018-02-07T21:52:03.653Z,80.60
2018-02-07T21:54:31.590Z,80.93
2018-02-07T21:57:01.085Z,81.58
2018-02-07T22:02:39.783Z,81.62
2018-02-07T22:05:07.188Z,81.92
2018-02-07T22:07:34.601Z,80.88
2018-02-07T22:10:02.005Z,79.74
2018-02-07T22:12:29.424Z,80.23
2018-02-07T22:14:56.821Z,80.48
2018-02-07T22:17:25.209Z,80.81
2018-02-07T22:19:52.621Z,81.14
2018-02-07T22:22:20.039Z,81.53
2018-02-07T22:24:47.441Z,81.36
2018-02-07T22:27:14.861Z,80.40
2018-02-07T22:29:42.265Z,80.91
2018-02-07T22:32:09.680Z,81.60
2018-02-07T22:34:37.099Z,79.87
2018-02-07T22:37:04.504Z,80.37
2018-02-07T22:39:31.927Z,79.91
2018-02-07T22:41:59.331Z,80.22
2018-02-07T22:44:26.751Z,81.19
2018-02-07T22:46:54.161Z,79.71
2018-02-07T22:49:21.582Z,80.20
2018-02-07T22:51:48.987Z,80.23
2018-02-07T22:54:16.401Z,80.09
2018-02-07T22:56:43.811Z,80.04
2018-02-07T22:59:11.234Z,80.49
2018-02-07T23:01:38.644Z,80.29
2018-02-07T23:04:06.061Z,80.52
2018-02-07T23:06:33.470Z,80.34
2018-02-07T23:09:00.885Z,80.73
2018-02-07T23:11:28.296Z,81.29
2018-02-07T23:13:56.753Z,80.93
2018-02-07T23:16:24.156Z,81.24
2018-02-07T23:18:51.580Z,81.90
2018-02-07T23:21:18.976Z,82.09
2018-02-07T23:23:46.396Z,80.72
2018-02-07T23:26:13.878Z,80.76
2018-02-07T23:28:41.276Z,80.48
2018-02-07T23:31:08.693Z,80.08
2018-02-07T23:33:36.106Z,80.33
2018-02-07T23:36:03.508Z,81.16
2018-02-07T23:38:30.934Z,80.64
2018-02-07T23:40:58.343Z,81.17
2018-02-07T23:43:25.744Z,81.37
2018-02-07T23:45:53.164Z,81.35
2018-02-07T23:48:20.572Z,80.05
2018-02-07T23:50:47.981Z,81.54
2018-02-07T23:53:15.389Z,82.20
2018-02-07T23:55:42.814Z,80.83
2018-02-07T23:58:10.210Z,81.38
